LGZA/ZTH METAR and TAF weather

Enter ICAO airport designator
Station Type Date Time Source
LGZA METAR 2021/10/24 19:50 UTC NOAA

LGZA 241950Z 00000KT 8000 -RA FEW012 BKN020 BKN070 19/18 Q1021


Station Type Date Time Source
LGZA Decoded METAR 2021/10/24 19:50 UTC NOAA

Zakinthos Airport , Greece (LGZA) 37-45N 020-53E
Oct 24, 2021 - 03:50 PM EDT / 2021.10.24 1950 UTC
Wind: Calm:0
Visibility: 4 mile(s):0
Sky conditions: mostly cloudy
Weather: light rain
Temperature: 66 F (19 C)
Dew Point: 64 F (18 C)
Relative Humidity: 93%
Pressure (altimeter): 30.15 in. Hg (1021 hPa)
ob: LGZA 241950Z 00000KT 8000 -RA FEW012 BKN020 BKN070 19/18 Q1021
cycle: 20

Station Type Date Time Source
LGZA TAF 2011/11/25 15:06 UTC NOAA

TAF TAF LGZA 251400Z 2515/2603 02012KT 9999 FEW025 SCT035 BKN080 PROB30
TEMPO 2518/2603 8000 RA PROB30 2522/2603 5000 BR SCT010

Example: see airport list